sensor_id;sensor_type;location;lat;lon;timestamp;pressure;altitude;pressure_sealevel;temperature;humidity
66176;BME280;52977;44.816;20.538;2022-12-05T00:00:27;100409.72;;;5.76;92.53
66176;BME280;52977;44.816;20.538;2022-12-05T00:02:53;100409.97;;;5.85;91.78
66176;BME280;52977;44.816;20.538;2022-12-05T00:05:20;100414.59;;;5.79;91.93
66176;BME280;52977;44.816;20.538;2022-12-05T00:07:46;100372.91;;;5.54;91.71
66176;BME280;52977;44.816;20.538;2022-12-05T00:10:13;100279.25;;;4.96;91.42
66176;BME280;52977;44.816;20.538;2022-12-05T00:12:39;100406.22;;;5.80;91.90
66176;BME280;52977;44.816;20.538;2022-12-05T00:15:05;100424.88;;;5.92;91.31
66176;BME280;52977;44.816;20.538;2022-12-05T00:17:39;100391.88;;;5.70;90.98
66176;BME280;52977;44.816;20.538;2022-12-05T00:20:06;100417.03;;;5.91;90.71
66176;BME280;52977;44.816;20.538;2022-12-05T00:22:36;100361.56;;;5.47;91.05
66176;BME280;52977;44.816;20.538;2022-12-05T00:25:05;100412.44;;;5.86;91.10
66176;BME280;52977;44.816;20.538;2022-12-05T00:27:32;100408.09;;;5.80;90.88
66176;BME280;52977;44.816;20.538;2022-12-05T00:29:58;100391.88;;;5.70;90.56
66176;BME280;52977;44.816;20.538;2022-12-05T00:32:26;100419.19;;;5.89;90.67
66176;BME280;52977;44.816;20.538;2022-12-05T00:34:53;100419.19;;;5.89;90.48
66176;BME280;52977;44.816;20.538;2022-12-05T00:37:19;100392.41;;;5.82;90.34
66176;BME280;52977;44.816;20.538;2022-12-05T00:39:46;100382.63;;;5.76;90.49
66176;BME280;52977;44.816;20.538;2022-12-05T00:42:12;100408.91;;;5.86;90.05
66176;BME280;52977;44.816;20.538;2022-12-05T00:44:38;100299.00;;;5.07;90.34
66176;BME280;52977;44.816;20.538;2022-12-05T00:47:05;100407.28;;;5.85;90.10
66176;BME280;52977;44.816;20.538;2022-12-05T00:49:30;100316.34;;;5.17;90.34
66176;BME280;52977;44.816;20.538;2022-12-05T00:51:57;100413.25;;;5.81;90.36
66176;BME280;52977;44.816;20.538;2022-12-05T00:54:23;100363.72;;;5.45;90.30
66176;BME280;52977;44.816;20.538;2022-12-05T00:56:49;100380.22;;;5.59;90.46
66176;BME280;52977;44.816;20.538;2022-12-05T00:59:18;100410.28;;;5.78;90.42
66176;BME280;52977;44.816;20.538;2022-12-05T01:01:46;100384.78;;;5.84;90.65
66176;BME280;52977;44.816;20.538;2022-12-05T01:04:16;100360.44;;;5.63;90.82
66176;BME280;52977;44.816;20.538;2022-12-05T01:06:44;100375.84;;;5.78;90.41
66176;BME280;52977;44.816;20.538;2022-12-05T01:09:15;100368.00;;;5.77;90.19
66176;BME280;52977;44.816;20.538;2022-12-05T01:11:42;100382.09;;;5.79;90.33
66176;BME280;52977;44.816;20.538;2022-12-05T01:14:10;100377.22;;;5.76;90.44
66176;BME280;52977;44.816;20.538;2022-12-05T01:16:38;100376.13;;;5.82;90.73
66176;BME280;52977;44.816;20.538;2022-12-05T01:19:11;100349.88;;;5.62;91.09
66176;BME280;52977;44.816;20.538;2022-12-05T01:21:37;100314.19;;;5.24;91.88
66176;BME280;52977;44.816;20.538;2022-12-05T01:24:03;100370.72;;;5.72;92.26
66176;BME280;52977;44.816;20.538;2022-12-05T01:26:29;100366.38;;;5.81;91.14
66176;BME280;52977;44.816;20.538;2022-12-05T01:28:55;100262.75;;;5.19;90.93
66176;BME280;52977;44.816;20.538;2022-12-05T01:33:50;100376.13;;;5.82;90.55
66176;BME280;52977;44.816;20.538;2022-12-05T01:36:17;100376.13;;;5.77;90.32
66176;BME280;52977;44.816;20.538;2022-12-05T01:38:44;100366.94;;;5.73;90.54
66176;BME280;52977;44.816;20.538;2022-12-05T01:41:25;100377.50;;;5.74;90.55
66176;BME280;52977;44.816;20.538;2022-12-05T01:46:27;100366.38;;;5.76;90.16
66176;BME280;52977;44.816;20.538;2022-12-05T01:49:04;100365.31;;;5.77;90.02
66176;BME280;52977;44.816;20.538;2022-12-05T01:51:33;100374.50;;;5.81;89.76
66176;BME280;52977;44.816;20.538;2022-12-05T01:54:01;100365.81;;;5.79;89.99
66176;BME280;52977;44.816;20.538;2022-12-05T01:56:27;100344.97;;;5.69;89.78
66176;BME280;52977;44.816;20.538;2022-12-05T01:58:54;100359.06;;;5.81;89.13
66176;BME280;52977;44.816;20.538;2022-12-05T02:01:21;100359.59;;;5.73;89.46
66176;BME280;52977;44.816;20.538;2022-12-05T02:03:49;100370.16;;;5.75;89.97
66176;BME280;52977;44.816;20.538;2022-12-05T02:06:17;100356.91;;;5.58;90.38
66176;BME280;52977;44.816;20.538;2022-12-05T02:08:44;100343.09;;;5.64;90.04
66176;BME280;52977;44.816;20.538;2022-12-05T02:11:11;100357.19;;;5.77;90.15
66176;BME280;52977;44.816;20.538;2022-12-05T02:16:44;100368.00;;;5.72;90.06
66176;BME280;52977;44.816;20.538;2022-12-05T02:22:46;100344.69;;;5.76;90.29
66176;BME280;52977;44.816;20.538;2022-12-05T02:30:09;100355.25;;;5.82;89.74
66176;BME280;52977;44.816;20.538;2022-12-05T02:38:38;100347.13;;;5.77;89.92
66176;BME280;52977;44.816;20.538;2022-12-05T02:44:15;100358.53;;;5.74;89.71
66176;BME280;52977;44.816;20.538;2022-12-05T02:46:44;100353.91;;;5.75;89.86
66176;BME280;52977;44.816;20.538;2022-12-05T02:49:15;100357.19;;;5.72;90.13
66176;BME280;52977;44.816;20.538;2022-12-05T02:51:46;100357.19;;;5.72;90.19
66176;BME280;52977;44.816;20.538;2022-12-05T02:54:16;100353.94;;;5.70;90.45
66176;BME280;52977;44.816;20.538;2022-12-05T02:56:45;100356.38;;;5.76;90.28
66176;BME280;52977;44.816;20.538;2022-12-05T02:59:11;100343.06;;;5.75;89.80
66176;BME280;52977;44.816;20.538;2022-12-05T03:01:37;100355.25;;;5.82;90.10
66176;BME280;52977;44.816;20.538;2022-12-05T03:04:04;100363.66;;;5.76;89.95
66176;BME280;52977;44.816;20.538;2022-12-05T03:06:42;100362.03;;;5.80;89.85
66176;BME280;52977;44.816;20.538;2022-12-05T03:09:15;100292.50;;;5.39;89.74
66176;BME280;52977;44.816;20.538;2022-12-05T03:11:52;100334.97;;;5.70;90.23
66176;BME280;52977;44.816;20.538;2022-12-05T03:14:23;100332.53;;;5.63;90.31
66176;BME280;52977;44.816;20.538;2022-12-05T03:16:57;100349.03;;;5.72;90.53
66176;BME280;52977;44.816;20.538;2022-12-05T03:19:36;100336.84;;;5.74;89.85
66176;BME280;52977;44.816;20.538;2022-12-05T03:22:14;100332.25;;;5.75;89.90
66176;BME280;52977;44.816;20.538;2022-12-05T03:24:43;100342.28;;;5.69;90.13
66176;BME280;52977;44.816;20.538;2022-12-05T03:35:39;100343.66;;;5.51;91.46
66176;BME280;52977;44.816;20.538;2022-12-05T03:38:11;100337.44;;;5.56;91.25
66176;BME280;52977;44.816;20.538;2022-12-05T03:46:29;100353.94;;;5.44;91.75
66176;BME280;52977;44.816;20.538;2022-12-05T03:49:18;100349.91;;;5.46;91.43
66176;BME280;52977;44.816;20.538;2022-12-05T03:51:54;100356.13;;;5.52;91.23
66176;BME280;52977;44.816;20.538;2022-12-05T03:54:27;100349.06;;;5.51;90.99
66176;BME280;52977;44.816;20.538;2022-12-05T03:57:03;100345.56;;;5.35;91.57
66176;BME280;52977;44.816;20.538;2022-12-05T03:59:38;100328.78;;;5.23;91.89
66176;BME280;52977;44.816;20.538;2022-12-05T04:02:15;100344.22;;;5.33;91.95
66176;BME280;52977;44.816;20.538;2022-12-05T04:04:54;100362.91;;;5.44;92.03
66176;BME280;52977;44.816;20.538;2022-12-05T04:07:21;100352.88;;;5.40;91.80
66176;BME280;52977;44.816;20.538;2022-12-05T04:09:52;100361.00;;;5.40;92.32
66176;BME280;52977;44.816;20.538;2022-12-05T04:12:23;100276.84;;;4.90;92.01
66176;BME280;52977;44.816;20.538;2022-12-05T04:14:55;100359.09;;;5.45;92.34
66176;BME280;52977;44.816;20.538;2022-12-05T04:17:39;100348.84;;;5.37;92.82
66176;BME280;52977;44.816;20.538;2022-12-05T04:20:12;100353.97;;;5.39;92.74
66176;BME280;52977;44.816;20.538;2022-12-05T04:22:58;100171.06;;;4.24;92.54
66176;BME280;52977;44.816;20.538;2022-12-05T04:25:28;100355.06;;;5.43;92.30
66176;BME280;52977;44.816;20.538;2022-12-05T04:33:14;100361.53;;;5.21;92.94
66176;BME280;52977;44.816;20.538;2022-12-05T04:35:51;100345.84;;;5.28;93.02
66176;BME280;52977;44.816;20.538;2022-12-05T04:38:42;100253.53;;;4.68;92.00
66176;BME280;52977;44.816;20.538;2022-12-05T04:41:23;100350.72;;;5.37;92.33
66176;BME280;52977;44.816;20.538;2022-12-05T04:43:53;100372.91;;;5.44;92.15
66176;BME280;52977;44.816;20.538;2022-12-05T04:46:21;100349.88;;;5.26;91.98
66176;BME280;52977;44.816;20.538;2022-12-05T04:48:54;100366.69;;;5.38;91.72
66176;BME280;52977;44.816;20.538;2022-12-05T04:51:25;100356.13;;;5.21;91.77
66176;BME280;52977;44.816;20.538;2022-12-05T04:54:05;100365.34;;;5.30;91.93
66176;BME280;52977;44.816;20.538;2022-12-05T04:56:36;100377.78;;;5.31;92.07
66176;BME280;52977;44.816;20.538;2022-12-05T04:59:03;100370.75;;;5.30;91.69
66176;BME280;52977;44.816;20.538;2022-12-05T05:01:36;100381.84;;;5.34;91.90
66176;BME280;52977;44.816;20.538;2022-12-05T05:04:31;100379.94;;;5.29;91.50
66176;BME280;52977;44.816;20.538;2022-12-05T05:07:04;100347.19;;;5.10;92.03
66176;BME280;52977;44.816;20.538;2022-12-05T05:09:31;100368.03;;;5.25;91.81
66176;BME280;52977;44.816;20.538;2022-12-05T05:11:57;100345.81;;;5.08;91.95
66176;BME280;52977;44.816;20.538;2022-12-05T05:14:23;100344.75;;;5.04;92.39
66176;BME280;52977;44.816;20.538;2022-12-05T05:16:49;100363.72;;;5.19;92.28
66176;BME280;52977;44.816;20.538;2022-12-05T05:19:15;100345.28;;;5.01;92.43
66176;BME280;52977;44.816;20.538;2022-12-05T05:21:42;100377.78;;;5.26;92.37
66176;BME280;52977;44.816;20.538;2022-12-05T05:24:10;100375.09;;;5.26;92.72
66176;BME280;52977;44.816;20.538;2022-12-05T05:26:39;100375.34;;;5.20;92.83
66176;BME280;52977;44.816;20.538;2022-12-05T05:29:06;100364.53;;;5.20;93.80
66176;BME280;52977;44.816;20.538;2022-12-05T05:31:32;100361.25;;;5.18;92.46
66176;BME280;52977;44.816;20.538;2022-12-05T05:33:58;100343.97;;;5.13;92.56
66176;BME280;52977;44.816;20.538;2022-12-05T05:36:26;100319.56;;;4.88;93.00
66176;BME280;52977;44.816;20.538;2022-12-05T05:38:55;100385.91;;;5.37;92.30
66176;BME280;52977;44.816;20.538;2022-12-05T05:41:24;100359.94;;;5.30;92.76
66176;BME280;52977;44.816;20.538;2022-12-05T05:43:51;100300.91;;;4.86;92.04
66176;BME280;52977;44.816;20.538;2022-12-05T05:46:20;100312.00;;;4.95;92.19
66176;BME280;52977;44.816;20.538;2022-12-05T05:48:47;100334.72;;;4.99;92.46
66176;BME280;52977;44.816;20.538;2022-12-05T05:51:14;100384.84;;;5.27;92.49
66176;BME280;52977;44.816;20.538;2022-12-05T05:53:41;100347.47;;;5.14;92.74
66176;BME280;52977;44.816;20.538;2022-12-05T05:56:10;100371.56;;;5.21;92.78
66176;BME280;52977;44.816;20.538;2022-12-05T05:58:37;100382.13;;;5.33;93.03
66176;BME280;52977;44.816;20.538;2022-12-05T06:01:14;100314.16;;;4.93;92.54
66176;BME280;52977;44.816;20.538;2022-12-05T06:03:41;100352.59;;;5.10;92.48
66176;BME280;52977;44.816;20.538;2022-12-05T06:06:09;100391.31;;;5.31;93.26
66176;BME280;52977;44.816;20.538;2022-12-05T06:08:38;100383.19;;;5.31;92.63
66176;BME280;52977;44.816;20.538;2022-12-05T06:11:06;100381.56;;;5.36;93.06
66176;BME280;52977;44.816;20.538;2022-12-05T06:13:32;100389.16;;;5.34;93.03
66176;BME280;52977;44.816;20.538;2022-12-05T06:15:58;100383.19;;;5.31;93.05
66176;BME280;52977;44.816;20.538;2022-12-05T06:18:23;100379.13;;;5.24;93.25
66176;BME280;52977;44.816;20.538;2022-12-05T06:20:55;100386.44;;;5.28;93.89
66176;BME280;52977;44.816;20.538;2022-12-05T06:23:22;100385.91;;;5.26;93.82
66176;BME280;52977;44.816;20.538;2022-12-05T06:25:49;100389.16;;;5.28;93.41
66176;BME280;52977;44.816;20.538;2022-12-05T06:28:17;100388.59;;;5.31;93.04
66176;BME280;52977;44.816;20.538;2022-12-05T06:30:44;100359.09;;;5.14;93.14
66176;BME280;52977;44.816;20.538;2022-12-05T06:33:11;100390.78;;;5.40;92.66
66176;BME280;52977;44.816;20.538;2022-12-05T06:35:37;100360.44;;;5.17;92.69
66176;BME280;52977;44.816;20.538;2022-12-05T06:38:05;100377.78;;;5.21;92.65
66176;BME280;52977;44.816;20.538;2022-12-05T06:40:32;100356.94;;;5.11;93.03
66176;BME280;52977;44.816;20.538;2022-12-05T06:42:58;100389.72;;;5.30;93.37
66176;BME280;52977;44.816;20.538;2022-12-05T06:45:24;100399.97;;;5.44;92.79
66176;BME280;52977;44.816;20.538;2022-12-05T06:47:51;100396.19;;;5.40;92.92
66176;BME280;52977;44.816;20.538;2022-12-05T06:50:18;100351.53;;;5.17;92.72
66176;BME280;52977;44.816;20.538;2022-12-05T06:52:44;100396.22;;;5.50;92.30
66176;BME280;52977;44.816;20.538;2022-12-05T06:55:10;100395.94;;;5.46;92.26
66176;BME280;52977;44.816;20.538;2022-12-05T06:57:36;100405.13;;;5.45;92.31
66176;BME280;52977;44.816;20.538;2022-12-05T07:00:04;100404.06;;;5.52;92.62
66176;BME280;52977;44.816;20.538;2022-12-05T07:02:52;100380.50;;;5.11;93.36
66176;BME280;52977;44.816;20.538;2022-12-05T07:05:18;100403.50;;;5.29;93.46
66176;BME280;52977;44.816;20.538;2022-12-05T07:07:45;100425.69;;;5.41;93.92
66176;BME280;52977;44.816;20.538;2022-12-05T07:10:11;100402.97;;;5.37;93.10
66176;BME280;52977;44.816;20.538;2022-12-05T07:12:37;100437.09;;;5.48;92.51
66176;BME280;52977;44.816;20.538;2022-12-05T07:15:04;100376.16;;;5.15;93.13
66176;BME280;52977;44.816;20.538;2022-12-05T07:17:35;100423.81;;;5.52;92.63
66176;BME280;52977;44.816;20.538;2022-12-05T07:20:02;100404.88;;;5.47;92.83
66176;BME280;52977;44.816;20.538;2022-12-05T07:22:29;100418.13;;;5.54;92.81
66176;BME280;52977;44.816;20.538;2022-12-05T07:24:55;100384.81;;;5.33;92.11
66176;BME280;52977;44.816;20.538;2022-12-05T07:27:21;100427.34;;;5.58;92.02
66176;BME280;52977;44.816;20.538;2022-12-05T07:29:47;100381.31;;;5.32;92.21
66176;BME280;52977;44.816;20.538;2022-12-05T07:32:13;100440.59;;;5.80;92.84
66176;BME280;52977;44.816;20.538;2022-12-05T07:34:38;100428.94;;;5.85;91.57
66176;BME280;52977;44.816;20.538;2022-12-05T07:37:04;100443.88;;;5.82;90.89
66176;BME280;52977;44.816;20.538;2022-12-05T07:39:30;100422.19;;;5.72;91.22
66176;BME280;52977;44.816;20.538;2022-12-05T07:41:55;100427.88;;;5.65;91.75
66176;BME280;52977;44.816;20.538;2022-12-05T07:44:21;100438.16;;;5.73;91.95
66176;BME280;52977;44.816;20.538;2022-12-05T07:46:46;100399.16;;;5.54;91.30
66176;BME280;52977;44.816;20.538;2022-12-05T07:49:12;100434.38;;;5.85;91.33
66176;BME280;52977;44.816;20.538;2022-12-05T07:51:40;100445.47;;;5.88;91.32
66176;BME280;52977;44.816;20.538;2022-12-05T07:54:06;100392.69;;;5.55;91.46
66176;BME280;52977;44.816;20.538;2022-12-05T07:56:31;100399.44;;;5.57;91.15
66176;BME280;52977;44.816;20.538;2022-12-05T07:58:57;100441.41;;;5.86;90.94
66176;BME280;52977;44.816;20.538;2022-12-05T08:01:25;100443.34;;;5.90;91.15
66176;BME280;52977;44.816;20.538;2022-12-05T08:03:53;100459.84;;;5.94;91.07
66176;BME280;52977;44.816;20.538;2022-12-05T08:06:22;100372.09;;;5.54;90.83
66176;BME280;52977;44.816;20.538;2022-12-05T08:08:48;100450.63;;;6.05;90.66
66176;BME280;52977;44.816;20.538;2022-12-05T08:11:17;100438.97;;;5.94;90.75
66176;BME280;52977;44.816;20.538;2022-12-05T08:13:44;100451.19;;;6.07;90.74
66176;BME280;52977;44.816;20.538;2022-12-05T08:16:12;100391.03;;;5.74;93.39
66176;BME280;52977;44.816;20.538;2022-12-05T08:18:39;100439.75;;;6.31;90.57
66176;BME280;52977;44.816;20.538;2022-12-05T08:21:08;100445.97;;;6.31;89.26
66176;BME280;52977;44.816;20.538;2022-12-05T08:23:36;100400.50;;;5.92;89.02
66176;BME280;52977;44.816;20.538;2022-12-05T08:26:08;100435.13;;;6.26;89.54
66176;BME280;52977;44.816;20.538;2022-12-05T08:28:35;100432.72;;;6.25;89.58
66176;BME280;52977;44.816;20.538;2022-12-05T08:31:07;100433.78;;;6.29;89.83
66176;BME280;52977;44.816;20.538;2022-12-05T08:33:34;100442.19;;;6.27;90.27
66176;BME280;52977;44.816;20.538;2022-12-05T08:36:05;100443.00;;;6.33;89.79
66176;BME280;52977;44.816;20.538;2022-12-05T08:38:32;100436.78;;;6.27;89.79
66176;BME280;52977;44.816;20.538;2022-12-05T08:41:07;100388.56;;;6.04;89.29
66176;BME280;52977;44.816;20.538;2022-12-05T08:43:34;100397.25;;;6.06;89.60
66176;BME280;52977;44.816;20.538;2022-12-05T08:46:01;100450.56;;;6.46;89.25
66176;BME280;52977;44.816;20.538;2022-12-05T08:48:29;100434.28;;;6.41;89.08
66176;BME280;52977;44.816;20.538;2022-12-05T08:50:55;100450.00;;;6.44;89.14
66176;BME280;52977;44.816;20.538;2022-12-05T08:53:22;100329.00;;;5.78;89.24
66176;BME280;52977;44.816;20.538;2022-12-05T08:55:48;100410.16;;;6.35;89.02
66176;BME280;52977;44.816;20.538;2022-12-05T08:58:14;100416.09;;;6.42;88.71
66176;BME280;52977;44.816;20.538;2022-12-05T09:00:41;100452.94;;;6.69;88.01
66176;BME280;52977;44.816;20.538;2022-12-05T09:03:09;100458.59;;;6.72;88.53
66176;BME280;52977;44.816;20.538;2022-12-05T09:05:36;100335.19;;;6.04;88.42
66176;BME280;52977;44.816;20.538;2022-12-05T09:08:02;100423.66;;;6.60;88.33
66176;BME280;52977;44.816;20.538;2022-12-05T09:10:29;100432.81;;;6.75;89.07
66176;BME280;52977;44.816;20.538;2022-12-05T09:12:55;100423.88;;;6.74;89.22
66176;BME280;52977;44.816;20.538;2022-12-05T09:15:22;100373.50;;;6.53;88.54
66176;BME280;52977;44.816;20.538;2022-12-05T09:17:48;100428.38;;;6.89;88.73
66176;BME280;52977;44.816;20.538;2022-12-05T09:20:14;100430.00;;;6.90;88.94
66176;BME280;52977;44.816;20.538;2022-12-05T09:22:40;100420.78;;;6.96;88.89
66176;BME280;52977;44.816;20.538;2022-12-05T09:25:07;100410.44;;;6.98;88.61
66176;BME280;52977;44.816;20.538;2022-12-05T09:27:34;100419.06;;;7.06;88.38
66176;BME280;52977;44.816;20.538;2022-12-05T09:30:00;100406.88;;;7.03;87.94
66176;BME280;52977;44.816;20.538;2022-12-05T09:32:26;100288.13;;;6.40;87.73
66176;BME280;52977;44.816;20.538;2022-12-05T09:34:53;100400.06;;;7.06;87.80
66176;BME280;52977;44.816;20.538;2022-12-05T09:37:19;100365.09;;;6.99;87.48
66176;BME280;52977;44.816;20.538;2022-12-05T09:39:45;100371.25;;;7.10;87.23
66176;BME280;52977;44.816;20.538;2022-12-05T09:45:09;100389.28;;;7.35;86.48
66176;BME280;52977;44.816;20.538;2022-12-05T09:50:26;100396.00;;;7.43;86.71
66176;BME280;52977;44.816;20.538;2022-12-05T09:55:50;100396.16;;;7.57;87.65
66176;BME280;52977;44.816;20.538;2022-12-05T09:58:50;100398.00;;;7.66;86.37
66176;BME280;52977;44.816;20.538;2022-12-05T10:03:44;100383.06;;;7.64;85.77
66176;BME280;52977;44.816;20.538;2022-12-05T10:09:29;100377.00;;;7.72;85.73
66176;BME280;52977;44.816;20.538;2022-12-05T10:12:35;100352.38;;;7.63;85.55
66176;BME280;52977;44.816;20.538;2022-12-05T10:15:00;100374.94;;;7.88;84.84
66176;BME280;52977;44.816;20.538;2022-12-05T10:17:34;100374.13;;;7.87;85.77
66176;BME280;52977;44.816;20.538;2022-12-05T10:27:59;100386.94;;;8.11;84.77
66176;BME280;52977;44.816;20.538;2022-12-05T10:30:30;100372.53;;;8.11;84.11
66176;BME280;52977;44.816;20.538;2022-12-05T10:32:59;100377.44;;;8.09;85.20
66176;BME280;52977;44.816;20.538;2022-12-05T10:35:37;100364.38;;;8.11;85.61
66176;BME280;52977;44.816;20.538;2022-12-05T10:38:06;100370.63;;;8.11;84.90
66176;BME280;52977;44.816;20.538;2022-12-05T10:40:38;100332.59;;;7.82;85.00
66176;BME280;52977;44.816;20.538;2022-12-05T10:43:05;100381.16;;;8.18;84.82
66176;BME280;52977;44.816;20.538;2022-12-05T10:45:35;100362.34;;;8.21;84.36
66176;BME280;52977;44.816;20.538;2022-12-05T10:48:03;100369.66;;;8.26;83.19
66176;BME280;52977;44.816;20.538;2022-12-05T10:58:20;100359.28;;;8.28;83.65
66176;BME280;52977;44.816;20.538;2022-12-05T11:01:06;100343.50;;;8.30;82.76
66176;BME280;52977;44.816;20.538;2022-12-05T11:03:39;100346.13;;;8.35;82.90
66176;BME280;52977;44.816;20.538;2022-12-05T11:06:23;100308.66;;;8.08;83.13
66176;BME280;52977;44.816;20.538;2022-12-05T11:08:54;100343.41;;;8.35;83.49
66176;BME280;52977;44.816;20.538;2022-12-05T11:11:23;100355.31;;;8.45;82.87
66176;BME280;52977;44.816;20.538;2022-12-05T11:14:20;100355.31;;;8.45;82.47
66176;BME280;52977;44.816;20.538;2022-12-05T11:16:56;100354.41;;;8.49;82.45
66176;BME280;52977;44.816;20.538;2022-12-05T11:19:32;100348.91;;;8.54;82.30
66176;BME280;52977;44.816;20.538;2022-12-05T11:21:58;100350.25;;;8.57;82.18
66176;BME280;52977;44.816;20.538;2022-12-05T11:26:59;100352.03;;;8.67;82.11
66176;BME280;52977;44.816;20.538;2022-12-05T11:29:37;100359.28;;;8.71;82.56
66176;BME280;52977;44.816;20.538;2022-12-05T11:32:08;100292.75;;;8.39;82.36
66176;BME280;52977;44.816;20.538;2022-12-05T11:34:48;100317.66;;;8.52;82.17
66176;BME280;52977;44.816;20.538;2022-12-05T11:37:24;100260.56;;;8.28;82.04
66176;BME280;52977;44.816;20.538;2022-12-05T11:39:51;100331.06;;;8.86;82.24
66176;BME280;52977;44.816;20.538;2022-12-05T11:42:58;100326.41;;;8.87;81.66
66176;BME280;52977;44.816;20.538;2022-12-05T11:51:09;100322.41;;;8.98;81.38
66176;BME280;52977;44.816;20.538;2022-12-05T11:53:48;100321.03;;;9.01;81.39
66176;BME280;52977;44.816;20.538;2022-12-05T11:56:37;100319.09;;;9.01;81.32
66176;BME280;52977;44.816;20.538;2022-12-05T12:04:40;100302.81;;;9.15;80.94
66176;BME280;52977;44.816;20.538;2022-12-05T12:13:06;100291.16;;;9.29;80.12
66176;BME280;52977;44.816;20.538;2022-12-05T12:15:52;100299.25;;;9.34;79.77
66176;BME280;52977;44.816;20.538;2022-12-05T12:24:19;100267.06;;;9.50;79.99
66176;BME280;52977;44.816;20.538;2022-12-05T12:32:10;100281.34;;;9.74;79.23
66176;BME280;52977;44.816;20.538;2022-12-05T12:34:44;100279.81;;;9.82;78.94
66176;BME280;52977;44.816;20.538;2022-12-05T12:37:42;100256.41;;;9.81;78.69
66176;BME280;52977;44.816;20.538;2022-12-05T12:40:28;100259.72;;;9.92;78.78
66176;BME280;52977;44.816;20.538;2022-12-05T12:43:02;100249.72;;;10.01;78.11
66176;BME280;52977;44.816;20.538;2022-12-05T12:50:51;100241.41;;;10.20;77.68
66176;BME280;52977;44.816;20.538;2022-12-05T12:56:57;100244.31;;;10.24;78.09
66176;BME280;52977;44.816;20.538;2022-12-05T13:02:28;100229.50;;;10.16;77.31
66176;BME280;52977;44.816;20.538;2022-12-05T13:05:18;100226.16;;;10.05;77.46
66176;BME280;52977;44.816;20.538;2022-12-05T13:10:36;100247.28;;;10.14;77.58
66176;BME280;52977;44.816;20.538;2022-12-05T13:13:05;100241.13;;;10.08;77.24
66176;BME280;52977;44.816;20.538;2022-12-05T13:15:50;100246.50;;;9.99;77.03
66176;BME280;52977;44.816;20.538;2022-12-05T13:18:23;100245.97;;;10.11;77.13
66176;BME280;52977;44.816;20.538;2022-12-05T13:20:54;100236.97;;;10.11;76.94
66176;BME280;52977;44.816;20.538;2022-12-05T13:23:24;100243.06;;;10.07;76.49
66176;BME280;52977;44.816;20.538;2022-12-05T13:25:53;100245.34;;;10.00;76.76
66176;BME280;52977;44.816;20.538;2022-12-05T13:28:27;100242.31;;;10.02;76.57
66176;BME280;52977;44.816;20.538;2022-12-05T13:30:55;100192.69;;;9.77;76.36
66176;BME280;52977;44.816;20.538;2022-12-05T13:33:34;100228.41;;;10.03;76.09
66176;BME280;52977;44.816;20.538;2022-12-05T13:36:10;100239.09;;;10.00;75.79
66176;BME280;52977;44.816;20.538;2022-12-05T13:39:03;100197.75;;;9.70;76.56
66176;BME280;52977;44.816;20.538;2022-12-05T13:41:51;100206.50;;;9.67;76.33
66176;BME280;52977;44.816;20.538;2022-12-05T13:47:06;100238.91;;;9.68;77.09
66176;BME280;52977;44.816;20.538;2022-12-05T13:49:48;100245.91;;;9.74;77.01
66176;BME280;52977;44.816;20.538;2022-12-05T13:52:25;100234.19;;;9.74;76.59
66176;BME280;52977;44.816;20.538;2022-12-05T13:55:10;100190.88;;;9.45;76.56
66176;BME280;52977;44.816;20.538;2022-12-05T14:07:54;100222.63;;;9.21;77.25
66176;BME280;52977;44.816;20.538;2022-12-05T14:13:01;100197.50;;;9.11;78.16
66176;BME280;52977;44.816;20.538;2022-12-05T14:15:37;100215.53;;;9.06;78.21
66176;BME280;52977;44.816;20.538;2022-12-05T14:32:27;100188.66;;;8.34;80.09
66176;BME280;52977;44.816;20.538;2022-12-05T14:35:04;100209.06;;;8.31;80.12
66176;BME280;52977;44.816;20.538;2022-12-05T14:37:37;100218.81;;;8.37;80.82
66176;BME280;52977;44.816;20.538;2022-12-05T14:43:06;100224.38;;;8.27;81.36
66176;BME280;52977;44.816;20.538;2022-12-05T14:45:55;100235.84;;;8.24;81.27
66176;BME280;52977;44.816;20.538;2022-12-05T14:48:34;100223.00;;;8.11;82.00
66176;BME280;52977;44.816;20.538;2022-12-05T14:54:08;100229.00;;;8.08;81.57
66176;BME280;52977;44.816;20.538;2022-12-05T14:56:42;100234.38;;;8.13;82.14
66176;BME280;52977;44.816;20.538;2022-12-05T14:59:31;100188.03;;;7.80;81.61
66176;BME280;52977;44.816;20.538;2022-12-05T15:02:01;100232.81;;;8.07;82.57
66176;BME280;52977;44.816;20.538;2022-12-05T15:04:44;100236.69;;;8.00;82.76
66176;BME280;52977;44.816;20.538;2022-12-05T15:07:21;100204.59;;;7.59;82.87
66176;BME280;52977;44.816;20.538;2022-12-05T15:10:18;100246.09;;;7.89;83.16
66176;BME280;52977;44.816;20.538;2022-12-05T15:12:50;100243.22;;;7.80;83.45
66176;BME280;52977;44.816;20.538;2022-12-05T15:15:38;100250.53;;;7.80;83.56
66176;BME280;52977;44.816;20.538;2022-12-05T15:24:21;100192.91;;;7.34;84.57
66176;BME280;52977;44.816;20.538;2022-12-05T15:26:57;100251.16;;;7.72;84.25
66176;BME280;52977;44.816;20.538;2022-12-05T15:29:27;100201.53;;;7.42;83.94
66176;BME280;52977;44.816;20.538;2022-12-05T15:34:41;100240.25;;;7.77;83.55
66176;BME280;52977;44.816;20.538;2022-12-05T15:40:01;100236.78;;;7.71;83.72
66176;BME280;52977;44.816;20.538;2022-12-05T15:42:36;100233.38;;;7.60;84.07
66176;BME280;52977;44.816;20.538;2022-12-05T15:50:44;100210.09;;;7.54;84.64
66176;BME280;52977;44.816;20.538;2022-12-05T15:58:35;100205.03;;;7.42;85.51
66176;BME280;52977;44.816;20.538;2022-12-05T16:01:46;100180.88;;;7.16;85.26
66176;BME280;52977;44.816;20.538;2022-12-05T16:04:21;100181.75;;;7.12;85.88
66176;BME280;52977;44.816;20.538;2022-12-05T16:06:52;100216.16;;;7.22;86.21
66176;BME280;52977;44.816;20.538;2022-12-05T16:09:22;100205.31;;;7.16;86.31